createdAt,value
2022-11-28T00:00:46.180Z,58.43
2022-11-28T00:03:32.648Z,58.22
2022-11-28T00:09:06.869Z,58.33
2022-11-28T00:11:38.339Z,58.44
2022-11-28T00:14:11.154Z,57.83
2022-11-28T00:16:50.298Z,57.97
2022-11-28T00:19:22.065Z,58.17
2022-11-28T00:21:51.351Z,57.82
2022-11-28T00:24:27.554Z,57.72
2022-11-28T00:27:00.200Z,57.79
2022-11-28T00:29:33.603Z,57.80
2022-11-28T01:43:10.254Z,58.37
2022-11-28T01:48:50.584Z,58.51
2022-11-28T01:51:25.824Z,58.60
2022-11-28T01:53:55.188Z,58.26
2022-11-28T01:56:32.567Z,58.15
2022-11-28T01:59:08.816Z,58.49
2022-11-28T02:01:41.835Z,58.42
2022-11-28T02:04:14.870Z,58.68
2022-11-28T02:27:48.211Z,58.39
2022-11-28T02:33:36.057Z,58.54
2022-11-28T02:36:12.387Z,58.46
2022-11-28T02:39:00.105Z,58.80
2022-11-28T02:41:37.060Z,58.44
2022-11-28T02:44:13.753Z,58.64
2022-11-28T02:46:49.079Z,58.51
2022-11-28T02:49:25.406Z,58.72
2022-11-28T02:51:57.347Z,58.31
2022-11-28T02:54:28.864Z,58.13
2022-11-28T02:56:57.959Z,57.51
2022-11-28T02:59:48.567Z,58.10
2022-11-28T03:02:23.214Z,58.17
2022-11-28T03:04:59.401Z,58.69
2022-11-28T03:07:42.787Z,58.57
2022-11-28T03:10:21.222Z,58.58
2022-11-28T03:12:59.476Z,58.70
2022-11-28T03:15:34.313Z,58.55
2022-11-28T03:18:09.128Z,58.53
2022-11-28T03:20:56.865Z,58.53
2022-11-28T03:23:37.050Z,58.55
2022-11-28T03:26:19.379Z,58.44
2022-11-28T03:29:01.594Z,58.81
2022-11-28T03:31:41.801Z,58.79
2022-11-28T03:34:17.408Z,58.75
2022-11-28T03:36:53.156Z,58.68
2022-11-28T03:39:26.592Z,58.75
2022-11-28T03:42:05.030Z,58.52
2022-11-28T03:44:40.925Z,58.63
2022-11-28T03:53:09.856Z,58.67
2022-11-28T03:55:59.155Z,58.71
2022-11-28T03:58:41.426Z,58.77
2022-11-28T04:07:10.462Z,58.71
2022-11-28T04:17:57.981Z,58.63
2022-11-28T04:20:42.121Z,58.77
2022-11-28T04:23:22.864Z,58.71
2022-11-28T04:26:14.313Z,58.44
2022-11-28T04:29:12.480Z,58.63
2022-11-28T04:31:44.627Z,58.84
2022-11-28T04:34:20.472Z,58.67
2022-11-28T04:37:09.957Z,58.64
2022-11-28T04:46:27.193Z,58.56
2022-11-28T04:53:10.588Z,58.61
2022-11-28T04:55:47.792Z,58.46
2022-11-28T05:03:58.158Z,58.30
2022-11-28T05:06:35.243Z,58.25
2022-11-28T05:09:07.398Z,58.27
2022-11-28T05:11:38.575Z,57.78
2022-11-28T05:14:08.529Z,58.41
2022-11-28T05:16:37.098Z,58.23
2022-11-28T05:19:06.526Z,58.46
2022-11-28T05:21:35.126Z,58.35
2022-11-28T05:24:05.736Z,58.50
2022-11-28T05:26:35.587Z,58.82
2022-11-28T05:29:05.947Z,58.46
2022-11-28T05:31:39.944Z,58.41
2022-11-28T05:34:08.639Z,58.36
2022-11-28T05:36:37.080Z,58.04
2022-11-28T05:39:08.030Z,57.56
2022-11-28T05:41:37.625Z,57.55
2022-11-28T05:44:06.847Z,58.14
2022-11-28T05:46:35.717Z,58.12
2022-11-28T05:49:04.798Z,57.95
2022-11-28T05:51:33.765Z,57.97
2022-11-28T05:54:01.945Z,58.04
2022-11-28T05:56:32.226Z,58.26
2022-11-28T05:59:02.422Z,58.13
2022-11-28T06:01:32.361Z,58.62
2022-11-28T06:04:02.171Z,58.50
2022-11-28T06:06:32.615Z,58.38
2022-11-28T06:09:01.485Z,58.59
2022-11-28T06:11:33.978Z,58.70
2022-11-28T06:14:06.642Z,58.87
2022-11-28T06:16:36.180Z,58.83
2022-11-28T06:19:07.792Z,58.33
2022-11-28T06:21:36.881Z,58.86
2022-11-28T06:36:06.550Z,59.05
2022-11-28T06:41:33.664Z,58.43
2022-11-28T06:50:04.748Z,58.39
2022-11-28T06:52:40.294Z,58.51
2022-11-28T06:55:12.109Z,58.52
2022-11-28T06:57:41.623Z,58.39
2022-11-28T07:00:23.060Z,58.49
2022-11-28T07:19:57.995Z,58.61
2022-11-28T07:22:40.169Z,58.65
2022-11-28T07:57:32.668Z,58.22
2022-11-28T08:00:01.726Z,57.85
2022-11-28T08:02:32.750Z,58.06
2022-11-28T08:05:01.288Z,57.80
2022-11-28T08:07:30.258Z,58.12
2022-11-28T08:10:02.496Z,58.13
2022-11-28T08:15:55.709Z,58.69
2022-11-28T08:18:25.119Z,58.50
2022-11-28T08:30:16.310Z,58.46
2022-11-28T08:41:32.503Z,58.77
2022-11-28T08:44:01.636Z,58.92
2022-11-28T08:46:31.958Z,58.79
2022-11-28T08:49:04.237Z,58.89
2022-11-28T08:51:34.437Z,58.96
2022-11-28T08:54:02.727Z,58.78
2022-11-28T08:56:39.593Z,59.13
2022-11-28T08:59:14.910Z,58.97
2022-11-28T09:01:45.547Z,58.44
2022-11-28T09:04:14.106Z,58.78
2022-11-28T09:06:46.148Z,58.75
2022-11-28T09:09:16.437Z,58.94
2022-11-28T09:11:45.917Z,58.69
2022-11-28T09:14:14.647Z,59.28
2022-11-28T09:16:44.634Z,58.71
2022-11-28T09:19:13.269Z,58.69
2022-11-28T09:21:46.545Z,58.96
2022-11-28T09:24:16.166Z,58.94
2022-11-28T09:26:44.756Z,58.33
2022-11-28T09:29:13.062Z,58.22
2022-11-28T09:31:46.985Z,58.08
2022-11-28T09:34:17.318Z,57.79
2022-11-28T09:36:45.818Z,57.70
2022-11-28T09:39:19.718Z,57.79
2022-11-28T09:42:10.341Z,57.75
2022-11-28T09:44:45.966Z,57.63
2022-11-28T09:47:21.876Z,57.43
2022-11-28T09:49:58.381Z,57.82
2022-11-28T09:52:33.402Z,58.70
2022-11-28T09:55:18.695Z,58.91
2022-11-28T09:57:49.251Z,58.45
2022-11-28T10:00:21.921Z,58.31
2022-11-28T10:03:19.266Z,58.29
2022-11-28T10:06:00.759Z,58.08
2022-11-28T10:08:39.921Z,58.12
2022-11-28T10:11:19.532Z,57.81
2022-11-28T10:14:11.211Z,58.00
2022-11-28T10:16:49.699Z,58.26
2022-11-28T10:19:52.261Z,58.39
2022-11-28T10:22:17.144Z,58.24
2022-11-28T10:24:49.296Z,58.26
2022-11-28T10:27:23.911Z,58.40
2022-11-28T10:30:01.433Z,58.21
2022-11-28T10:32:34.337Z,58.31
2022-11-28T10:35:07.087Z,58.30
2022-11-28T10:37:39.876Z,57.90
2022-11-28T10:40:27.549Z,57.91
2022-11-28T10:43:08.092Z,58.15
2022-11-28T10:45:50.773Z,57.88
2022-11-28T10:48:41.018Z,57.83
2022-11-28T10:51:34.167Z,57.79
2022-11-28T10:57:36.177Z,56.94
2022-11-28T11:00:20.487Z,55.90
2022-11-28T11:02:51.433Z,55.40
2022-11-28T11:05:27.996Z,55.17
2022-11-28T11:08:03.958Z,54.15
2022-11-28T11:10:40.188Z,54.32
2022-11-28T11:13:16.134Z,53.84
2022-11-28T11:15:55.782Z,52.59
2022-11-28T11:18:29.097Z,51.00
2022-11-28T11:21:17.038Z,51.22
2022-11-28T11:23:45.906Z,50.85
2022-11-28T11:26:26.592Z,50.88
2022-11-28T11:28:55.923Z,51.45
2022-11-28T11:31:26.785Z,51.86
2022-11-28T11:34:03.729Z,52.64
2022-11-28T11:36:33.444Z,52.81
2022-11-28T11:39:18.064Z,52.85
2022-11-28T11:41:49.457Z,53.25
2022-11-28T11:44:36.152Z,53.30
2022-11-28T11:47:07.515Z,53.34
2022-11-28T11:49:37.555Z,53.77
2022-11-28T11:52:08.325Z,53.78
2022-11-28T11:54:36.308Z,54.00
2022-11-28T11:57:31.537Z,53.82
2022-11-28T12:00:00.021Z,54.16
2022-11-28T12:02:37.115Z,54.27
2022-11-28T12:05:11.713Z,54.16
2022-11-28T12:07:46.358Z,54.00
2022-11-28T12:10:19.121Z,54.04
2022-11-28T12:12:48.579Z,53.62
2022-11-28T12:15:20.693Z,53.05
2022-11-28T12:18:03.513Z,52.22
2022-11-28T12:20:44.806Z,51.71
2022-11-28T12:23:26.881Z,51.54
2022-11-28T12:26:00.364Z,51.13
2022-11-28T12:28:41.583Z,50.76
2022-11-28T12:31:18.993Z,51.03
2022-11-28T12:33:57.716Z,51.43
2022-11-28T12:36:35.089Z,51.37
2022-11-28T12:39:18.618Z,51.55
2022-11-28T12:42:21.911Z,51.22
2022-11-28T12:45:15.277Z,50.88
2022-11-28T12:47:52.806Z,50.52
2022-11-28T12:50:31.813Z,50.25
2022-11-28T12:53:10.659Z,50.45
2022-11-28T12:56:00.367Z,50.48
2022-11-28T12:58:36.318Z,50.35
2022-11-28T13:01:22.597Z,50.15
2022-11-28T13:04:06.697Z,50.54
2022-11-28T13:06:49.634Z,49.96
2022-11-28T13:09:33.821Z,49.86
2022-11-28T13:12:19.921Z,49.82
2022-11-28T13:14:56.331Z,49.84
2022-11-28T13:17:45.788Z,49.42
2022-11-28T13:20:22.270Z,49.97
2022-11-28T13:23:04.306Z,49.67
2022-11-28T13:25:44.998Z,49.80
2022-11-28T13:28:22.823Z,49.82
2022-11-28T13:30:56.814Z,49.83
2022-11-28T13:33:50.934Z,50.14
2022-11-28T13:39:33.043Z,49.36
2022-11-28T13:45:28.250Z,48.28
2022-11-28T13:48:01.032Z,47.80
2022-11-28T13:50:42.172Z,47.54
2022-11-28T13:53:25.522Z,47.65
2022-11-28T13:56:22.908Z,47.14
2022-11-28T13:58:54.694Z,46.94
2022-11-28T14:01:24.065Z,46.49
2022-11-28T14:03:55.027Z,46.13
2022-11-28T14:06:27.243Z,46.19
2022-11-28T14:09:05.617Z,46.54
2022-11-28T14:11:49.937Z,47.00
2022-11-28T14:14:31.966Z,47.27
2022-11-28T14:17:16.344Z,46.99
2022-11-28T14:20:02.850Z,46.70
2022-11-28T14:22:47.945Z,46.28
2022-11-28T14:25:21.541Z,45.90
2022-11-28T14:27:54.745Z,45.23
2022-11-28T14:30:28.185Z,45.45
2022-11-28T14:32:59.962Z,45.42
2022-11-28T14:36:03.693Z,45.88
2022-11-28T14:39:01.044Z,46.32
2022-11-28T14:41:29.144Z,46.27
2022-11-28T14:44:35.493Z,47.11
2022-11-28T14:47:08.176Z,47.60
2022-11-28T14:49:36.459Z,47.14
2022-11-28T14:52:41.598Z,46.57
2022-11-28T14:55:22.281Z,45.84
2022-11-28T14:57:57.371Z,45.54
2022-11-28T15:00:28.086Z,44.33
2022-11-28T15:03:12.051Z,44.13
2022-11-28T15:05:47.755Z,44.09
2022-11-28T15:08:31.244Z,43.66
2022-11-28T15:11:15.556Z,43.78
2022-11-28T15:14:08.844Z,44.50
2022-11-28T15:16:42.741Z,45.17
2022-11-28T15:19:19.920Z,45.49
2022-11-28T15:21:49.993Z,45.87
2022-11-28T15:24:29.788Z,46.22
2022-11-28T15:27:17.606Z,46.49
2022-11-28T15:29:54.312Z,46.77
2022-11-28T15:32:23.128Z,46.46
2022-11-28T15:34:59.560Z,46.87
2022-11-28T15:37:31.455Z,46.77
2022-11-28T15:40:01.325Z,46.94
2022-11-28T15:42:33.246Z,47.11
2022-11-28T15:45:06.494Z,47.00
2022-11-28T15:47:36.910Z,47.15
2022-11-28T15:50:17.264Z,47.67
2022-11-28T15:52:54.627Z,48.96
2022-11-28T15:55:23.129Z,49.66
2022-11-28T15:57:52.887Z,50.15
2022-11-28T16:00:22.062Z,51.19
2022-11-28T16:02:50.283Z,51.82
2022-11-28T16:05:22.020Z,53.17
2022-11-28T16:07:52.188Z,53.55
2022-11-28T16:10:25.242Z,53.92
2022-11-28T16:13:00.351Z,53.70
2022-11-28T16:15:29.416Z,53.64
2022-11-28T16:17:57.734Z,54.09
2022-11-28T16:20:28.816Z,53.63
2022-11-28T16:23:02.668Z,54.17
2022-11-28T16:25:32.831Z,54.21
2022-11-28T16:28:02.376Z,54.16
2022-11-28T16:30:37.037Z,54.37
2022-11-28T16:33:38.123Z,54.36
2022-11-28T16:36:21.681Z,53.90
2022-11-28T16:38:51.609Z,54.20
2022-11-28T16:41:23.185Z,54.02
2022-11-28T16:43:56.361Z,54.12
2022-11-28T16:46:25.941Z,54.13
2022-11-28T16:48:57.487Z,55.07
2022-11-28T16:51:36.614Z,54.87
2022-11-28T16:54:40.173Z,54.88
2022-11-28T16:57:14.756Z,55.60
2022-11-28T16:59:45.691Z,55.29
2022-11-28T17:02:16.989Z,55.37
2022-11-28T17:04:45.478Z,55.94
2022-11-28T17:07:16.349Z,55.68
2022-11-28T17:09:46.898Z,55.77
2022-11-28T17:12:23.503Z,55.95
2022-11-28T17:14:53.462Z,56.23
2022-11-28T17:17:23.531Z,56.09
2022-11-28T17:19:52.084Z,56.22
2022-11-28T17:22:22.469Z,56.31
2022-11-28T17:24:52.731Z,56.43
2022-11-28T17:27:28.055Z,56.28
2022-11-28T17:29:57.688Z,56.14
2022-11-28T17:32:26.293Z,55.66
2022-11-28T17:34:54.491Z,55.52
2022-11-28T17:37:22.396Z,55.63
2022-11-28T17:40:04.228Z,55.59
2022-11-28T17:42:32.191Z,55.49
2022-11-28T17:45:01.686Z,55.14
2022-11-28T17:47:29.832Z,55.31
2022-11-28T17:49:57.842Z,55.11
2022-11-28T17:52:30.427Z,55.33
2022-11-28T17:55:06.987Z,54.99
2022-11-28T17:57:36.037Z,54.88
2022-11-28T18:00:06.622Z,54.40
2022-11-28T18:02:34.864Z,54.12
2022-11-28T18:05:03.275Z,54.40
2022-11-28T18:07:31.468Z,54.19
2022-11-28T18:09:59.601Z,54.06
2022-11-28T18:12:27.586Z,53.45
2022-11-28T18:14:55.501Z,53.74
2022-11-28T18:17:24.888Z,53.87
2022-11-28T18:19:57.244Z,53.42
2022-11-28T18:22:25.851Z,53.63
2022-11-28T18:24:53.842Z,53.66
2022-11-28T18:27:32.139Z,53.80
2022-11-28T18:30:00.175Z,53.57
2022-11-28T18:32:29.650Z,53.47
2022-11-28T18:34:57.673Z,53.97
2022-11-28T18:37:26.270Z,53.70
2022-11-28T18:39:54.407Z,53.98
2022-11-28T18:42:22.739Z,53.97
2022-11-28T18:45:06.717Z,54.03
2022-11-28T18:50:30.315Z,54.08
2022-11-28T18:52:58.360Z,54.29
2022-11-28T18:55:26.600Z,53.99
2022-11-28T18:57:55.480Z,53.78
2022-11-28T19:00:31.844Z,54.31
2022-11-28T19:13:02.531Z,53.78
2022-11-28T19:24:41.638Z,54.23
2022-11-28T19:27:14.262Z,54.23
2022-11-28T19:29:44.952Z,54.26
2022-11-28T19:32:13.241Z,54.69
2022-11-28T19:34:41.595Z,54.34
2022-11-28T19:37:13.084Z,54.10
2022-11-28T19:39:43.231Z,54.18
2022-11-28T19:42:11.740Z,54.15
2022-11-28T19:44:41.727Z,54.24
2022-11-28T19:47:11.395Z,54.13
2022-11-28T19:49:39.670Z,54.18
2022-11-28T19:52:12.729Z,54.45
2022-11-28T19:54:41.660Z,54.11
2022-11-28T19:57:11.759Z,54.26
2022-11-28T19:59:40.017Z,54.24
2022-11-28T20:02:08.419Z,54.17
2022-11-28T20:04:49.707Z,53.86
2022-11-28T20:07:18.472Z,53.65
2022-11-28T20:09:47.026Z,53.62
2022-11-28T20:12:16.567Z,53.42
2022-11-28T20:14:47.234Z,53.33
2022-11-28T20:17:15.634Z,53.14
2022-11-28T20:19:45.803Z,53.48
2022-11-28T20:22:14.361Z,53.72
2022-11-28T20:24:42.642Z,53.35
2022-11-28T20:27:11.121Z,53.44
2022-11-28T20:29:40.735Z,53.54
2022-11-28T20:32:09.107Z,53.71
2022-11-28T20:34:38.322Z,53.75
2022-11-28T20:37:22.278Z,53.95
2022-11-28T20:39:52.223Z,53.64
2022-11-28T20:42:21.265Z,53.71
2022-11-28T20:44:55.107Z,53.78
2022-11-28T20:47:24.715Z,53.89
2022-11-28T20:49:53.185Z,53.89
2022-11-28T20:52:22.977Z,53.32
2022-11-28T20:54:51.777Z,53.68
2022-11-28T20:57:22.695Z,53.69
2022-11-28T20:59:51.134Z,53.75
2022-11-28T21:02:19.521Z,53.56
2022-11-28T21:04:47.835Z,53.89
2022-11-28T21:07:16.957Z,53.95
2022-11-28T21:09:47.587Z,53.96
2022-11-28T21:12:21.070Z,54.00
2022-11-28T21:14:49.433Z,54.10
2022-11-28T21:17:17.701Z,54.04
2022-11-28T21:19:46.559Z,54.19
2022-11-28T21:22:14.818Z,54.29
2022-11-28T21:24:43.036Z,54.56
2022-11-28T21:27:12.754Z,54.10
2022-11-28T21:29:43.179Z,54.18
2022-11-28T21:32:13.755Z,54.47
2022-11-28T21:34:42.918Z,54.25
2022-11-28T21:37:13.190Z,54.42
2022-11-28T21:39:41.882Z,54.78
2022-11-28T21:42:10.219Z,54.73
2022-11-28T21:44:41.095Z,54.40
2022-11-28T21:47:09.971Z,54.17
2022-11-28T21:49:38.450Z,54.31
2022-11-28T21:52:07.907Z,54.37
2022-11-28T21:54:36.313Z,54.03
2022-11-28T21:57:04.670Z,54.33
2022-11-28T21:59:35.568Z,54.33
2022-11-28T22:02:11.307Z,54.30
2022-11-28T22:04:39.768Z,54.42
2022-11-28T22:07:08.757Z,54.42
2022-11-28T22:09:38.797Z,54.25
2022-11-28T22:12:27.102Z,54.63
2022-11-28T22:14:57.985Z,54.30
2022-11-28T22:17:28.819Z,54.39
2022-11-28T22:19:57.127Z,54.41
2022-11-28T22:22:28.506Z,53.81
2022-11-28T22:24:57.350Z,54.69
2022-11-28T22:27:25.582Z,54.32
2022-11-28T22:29:53.954Z,54.05
